Time;durP1;ratioP1;P1;durP2;ratioP2;P2;SDS_P1;SDS_P2;PMS_P1;PMS_P2;Temp;Humidity;BMP_temperature;BMP_pressure;BME280_temperature;BME280_humidity;BME280_pressure;Samples;Min_cycle;Max_cycle;Signal;HPM_P1;HPM_P2
2023/10/23 00:02:18;;;;;;;2.10;1.92;;;;;;;14.16;nan;18042.66;4994617;28;20180;-69
2023/10/23 00:04:43;;;;;;;2.10;1.92;;;;;;;14.07;nan;17065.34;4994359;28;20235;-70
2023/10/23 00:07:08;;;;;;;3.75;1.88;;;;;;;14.24;nan;15124.88;4993604;28;20183;-71
2023/10/23 00:09:34;;;;;;;1.58;1.42;;;;;;;14.24;nan;14476.38;4994957;28;20189;-71
2023/10/23 00:11:59;;;;;;;1.40;1.30;;;;;;;13.96;nan;14142.50;4993401;28;20223;-69
2023/10/23 00:14:25;;;;;;;1.60;1.50;;;;;;;14.10;nan;14795.66;4994125;28;20181;-68
2023/10/23 00:16:50;;;;;;;3.33;1.95;;;;;;;10.01;nan;13684.94;4993961;28;20639;-70
2023/10/23 00:19:16;;;;;;;1.65;1.27;;;;;;;14.04;nan;13496.81;4993977;28;20678;-70
2023/10/23 00:21:42;;;;;;;2.42;2.08;;;;;;;13.84;nan;13166.22;4994089;28;20663;-70
2023/10/23 00:24:08;;;;;;;2.25;2.05;;;;;;;13.81;nan;12841.13;4993424;28;20378;-71
2023/10/23 00:26:34;;;;;;;2.25;1.60;;;;;;;13.83;nan;11870.13;4994064;28;20259;-68
2023/10/23 00:29:01;;;;;;;2.33;2.10;;;;;;;14.01;nan;13495.97;4993263;28;20215;-68
2023/10/23 00:31:27;;;;;;;2.78;2.47;;;;;;;13.75;nan;13163.09;4993723;28;20188;-70
2023/10/23 00:33:52;;;;;;;2.30;1.98;;;;;;;13.90;nan;13168.06;4993059;28;20283;-70
2023/10/23 00:36:18;;;;;;;1.48;1.38;;;;;;;13.67;nan;13160.59;4993599;28;20187;-71
2023/10/23 00:38:44;;;;;;;2.45;2.08;;;;;;;13.62;nan;11863.91;4993011;28;20180;-72
2023/10/23 00:41:09;;;;;;;2.10;1.67;;;;;;;13.71;nan;8630.31;4993053;28;20181;-70
2023/10/23 00:43:35;;;;;;;2.92;2.00;;;;;;;13.62;nan;8304.59;4993430;28;20204;-71
2023/10/23 00:46:10;;;;;;;1.92;1.83;;;;;;;13.67;nan;7659.13;4992559;28;20267;-70
2023/10/23 00:48:36;;;;;;;2.65;1.90;;;;;;;13.65;nan;6365.53;4991840;28;20271;-67
2023/10/23 00:51:02;;;;;;;2.47;1.77;;;;;;;13.37;nan;6359.38;4992798;28;20195;-69
2023/10/23 00:53:32;;;;;;;2.60;1.65;;;;;;;13.33;nan;5389.53;4992915;28;20315;-71
2023/10/23 00:55:58;;;;;;;3.03;1.70;;;;;;;13.31;nan;5066.22;4992773;28;20536;-69
2023/10/23 00:58:25;;;;;;;2.55;2.03;;;;;;;13.27;nan;4742.66;4993282;28;20184;-70
2023/10/23 01:00:52;;;;;;;1.55;1.40;;;;;;;13.31;nan;4097.66;4992207;28;20185;-71
2023/10/23 01:03:17;;;;;;;2.55;2.17;;;;;;;13.13;nan;3771.84;4992835;28;20189;-72
2023/10/23 01:05:44;;;;;;;3.17;1.98;;;;;;;13.33;nan;2484.31;4992559;28;20184;-69
2023/10/23 01:08:09;;;;;;;2.00;1.80;;;;;;;13.25;nan;870.53;4991743;28;20211;-72
2023/10/23 01:10:35;;;;;;;1.73;1.58;;;;;;;13.15;nan;1191.59;4992536;28;20640;-71
2023/10/23 01:13:04;;;;;;;3.13;2.75;;;;;;;;;;4990699;28;20272;-68
2023/10/23 01:15:29;;;;;;;3.30;2.75;;;;;;;;;;4992625;28;20667;-68
2023/10/23 01:17:55;;;;;;;2.67;2.00;;;;;;;13.19;nan;-742.00;4992261;28;20185;-70
2023/10/23 01:20:21;;;;;;;2.35;1.98;;;;;;;13.02;nan;-2354.28;4992177;28;20227;-71
2023/10/23 01:22:46;;;;;;;1.60;1.50;;;;;;;13.24;nan;-2674.72;4989207;28;20184;-71
2023/10/23 01:25:16;;;;;;;1.63;1.52;;;;;;;13.19;nan;-3641.19;4990058;28;20253;-69
2023/10/23 01:27:43;;;;;;;1.73;1.60;;;;;;;12.99;nan;-3642.31;4992372;28;20212;-72
2023/10/23 01:30:09;;;;;;;1.65;1.55;;;;;;;13.15;nan;-4607.19;4991610;28;20188;-73
2023/10/23 01:32:36;;;;;;;5.15;1.75;;;;;;;13.17;nan;-5572.59;4991468;28;20283;-72
2023/10/23 01:35:01;;;;;;;2.67;1.52;;;;;;;12.99;nan;-5573.00;4991345;28;20243;-73
2023/10/23 01:37:27;;;;;;;3.05;2.42;;;;;;;13.20;nan;-4928.88;4996557;28;20570;-69
2023/10/23 01:39:52;;;;;;;3.92;1.98;;;;;;;13.20;nan;-4928.84;4994180;28;20211;-71
2023/10/23 01:42:18;;;;;;;2.30;2.10;;;;;;;13.24;nan;-4928.72;4992220;28;20600;-71
2023/10/23 01:44:43;;;;;;;1.90;1.50;;;;;;;13.20;nan;-4928.84;4991313;28;20769;-70
2023/10/23 01:47:08;;;;;;;1.40;1.30;;;;;;;13.16;nan;-4929.00;4991364;28;20196;-70
2023/10/23 01:49:34;;;;;;;3.10;1.48;;;;;;;13.20;nan;-4928.84;4991352;28;20188;-69
2023/10/23 01:51:59;;;;;;;2.30;1.52;;;;;;;13.00;nan;-5251.28;4990561;28;20176;-73
2023/10/23 01:54:25;;;;;;;2.33;1.90;;;;;;;13.19;nan;-5572.56;4991588;28;20196;-70
2023/10/23 01:56:51;;;;;;;2.13;1.95;;;;;;;13.02;nan;-5572.94;4991706;28;20207;-69
2023/10/23 01:59:17;;;;;;;4.55;1.98;;;;;;;13.24;nan;-5894.25;4990336;28;20191;-72
2023/10/23 02:01:42;;;;;;;2.70;1.85;;;;;;;13.24;nan;-5572.44;4992661;28;20219;-70
2023/10/23 02:04:08;;;;;;;1.60;1.42;;;;;;;13.04;nan;-5894.59;4990649;28;20216;-72
2023/10/23 02:06:33;;;;;;;1.95;1.33;;;;;;;13.22;nan;-6216.03;4992141;28;20628;-72
2023/10/23 02:08:59;;;;;;;2.53;1.73;;;;;;;13.08;nan;-6537.88;4991987;28;20271;-72
2023/10/23 02:11:25;;;;;;;1.70;1.60;;;;;;;;;;4990898;28;20208;-72
2023/10/23 02:13:50;;;;;;;1.45;1.35;;;;;;;13.16;nan;-5894.38;4991268;28;20188;-71
2023/10/23 02:16:15;;;;;;;3.22;2.13;;;;;;;13.26;nan;-5572.38;4991392;28;20557;-68
2023/10/23 02:18:41;;;;;;;1.80;1.65;;;;;;;13.09;nan;-6216.22;4991364;28;20224;-71
2023/10/23 02:21:06;;;;;;;1.73;1.63;;;;;;;13.21;nan;-6216.03;4989962;28;20611;-70
2023/10/23 02:23:32;;;;;;;2.00;1.90;;;;;;;13.21;nan;-6537.78;4991149;28;20654;-70
2023/10/23 02:25:58;;;;;;;2.05;1.70;;;;;;;13.18;nan;-6537.81;4991591;28;20200;-71
2023/10/23 02:28:23;;;;;;;1.70;1.60;;;;;;;13.22;nan;-6859.47;4991002;28;20181;-69
2023/10/23 02:30:49;;;;;;;1.38;1.27;;;;;;;13.21;nan;-6537.78;4990406;28;20204;-69
2023/10/23 02:33:14;;;;;;;2.53;2.33;;;;;;;13.27;nan;-5572.34;4991172;28;20584;-72
2023/10/23 02:35:40;;;;;;;2.95;1.63;;;;;;;13.25;nan;-5250.56;4992953;28;20187;-72
2023/10/23 02:38:06;;;;;;;2.22;2.00;;;;;;;13.07;nan;-4929.31;5005165;28;20646;-70
2023/10/23 02:40:31;;;;;;;2.10;1.90;;;;;;;13.25;nan;-5250.56;4992508;28;20172;-71
2023/10/23 02:42:56;;;;;;;1.52;1.40;;;;;;;13.18;nan;-5250.75;4992782;28;20176;-71
2023/10/23 02:45:22;;;;;;;2.75;2.35;;;;;;;13.28;nan;-4606.66;4992520;28;20572;-70
2023/10/23 02:47:47;;;;;;;1.80;1.70;;;;;;;13.34;nan;-3640.41;4992717;28;20208;-69
2023/10/23 02:50:13;;;;;;;2.80;1.83;;;;;;;12.45;nan;-3002.00;4992119;28;20659;-72
2023/10/23 02:52:38;;;;;;;1.60;1.50;;;;;;;13.16;nan;-2675.28;4992934;28;20215;-71
2023/10/23 02:55:04;;;;;;;1.92;1.83;;;;;;;13.36;nan;-1707.28;4992386;28;20620;-72
2023/10/23 02:57:29;;;;;;;3.00;2.30;;;;;;;13.32;nan;-740.78;4992337;28;20524;-71
2023/10/23 02:59:55;;;;;;;2.78;1.58;;;;;;;13.06;nan;-1065.53;4992720;28;20260;-69
2023/10/23 03:02:22;;;;;;;2.20;2.00;;;;;;;13.24;nan;-1386.03;4992564;28;20181;-71
2023/10/23 03:04:48;;;;;;;1.52;1.30;;;;;;;13.00;nan;-1066.13;4992231;28;20359;-72
2023/10/23 03:07:13;;;;;;;3.10;1.70;;;;;;;13.07;nan;-743.31;4992293;28;20648;-72
2023/10/23 03:09:39;;;;;;;1.92;1.52;;;;;;;13.14;nan;-1064.75;4992754;28;20693;-69
2023/10/23 03:12:05;;;;;;;1.73;1.60;;;;;;;12.85;nan;-2033.63;4992384;28;20208;-69
2023/10/23 03:14:31;;;;;;;3.22;2.13;;;;;;;12.78;nan;-2678.00;4993298;28;20242;-71
2023/10/23 03:16:56;;;;;;;3.80;2.42;;;;;;;12.78;nan;-3643.44;4996199;28;20263;-72
2023/10/23 03:19:25;;;;;;;2.53;1.70;;;;;;;12.79;nan;-3643.38;4995833;28;20232;-71
2023/10/23 03:21:51;;;;;;;1.55;1.45;;;;;;;13.05;nan;-4285.72;4995753;28;20172;-72
2023/10/23 03:24:18;;;;;;;1.77;1.65;;;;;;;12.84;nan;-5894.94;4993870;28;20231;-69
2023/10/23 03:26:44;;;;;;;1.48;1.38;;;;;;;12.88;nan;-6216.47;4996123;28;20615;-71
2023/10/23 03:29:09;;;;;;;1.50;1.40;;;;;;;13.07;nan;-6537.88;4995601;28;20199;-70
2023/10/23 03:31:35;;;;;;;1.98;1.88;;;;;;;12.99;nan;-7181.06;4995643;28;20263;-69
2023/10/23 03:34:00;;;;;;;2.95;2.45;;;;;;;12.90;nan;-7502.50;4996093;28;20245;-72
2023/10/23 03:36:26;;;;;;;2.00;1.77;;;;;;;12.26;nan;-7180.84;4995951;28;20165;-70
2023/10/23 03:38:51;;;;;;;2.10;1.92;;;;;;;12.83;nan;-7181.03;4995684;28;20179;-68
2023/10/23 03:41:17;;;;;;;1.90;1.67;;;;;;;12.79;nan;-8466.47;4995375;28;20216;-71
2023/10/23 03:43:42;;;;;;;2.28;2.08;;;;;;;12.89;nan;-8145.31;4995050;28;20668;-70
2023/10/23 03:46:07;;;;;;;2.35;2.15;;;;;;;13.07;nan;-7824.19;4995485;28;20172;-72
2023/10/23 03:48:35;;;;;;;3.78;1.75;;;;;;;13.07;nan;-8788.56;4995606;28;20617;-71
2023/10/23 03:51:01;;;;;;;1.50;1.40;;;;;;;13.00;nan;-9752.34;4995268;28;20177;-69
2023/10/23 03:53:26;;;;;;;2.25;1.63;;;;;;;12.85;nan;-10394.03;4995323;28;20267;-72
2023/10/23 03:55:51;;;;;;;5.57;1.70;;;;;;;12.90;nan;-10073.13;4994766;28;20172;-72
2023/10/23 03:58:17;;;;;;;1.42;1.33;;;;;;;13.15;nan;-10395.72;4995256;28;20181;-70
2023/10/23 04:00:42;;;;;;;1.90;1.77;;;;;;;13.08;nan;-10395.28;4993819;28;20215;-71
2023/10/23 04:03:07;;;;;;;2.83;2.63;;;;;;;13.11;nan;-10074.16;4995084;28;20628;-69
2023/10/23 04:05:40;;;;;;;2.75;1.88;;;;;;;13.16;nan;-9753.06;4994820;28;20219;-70
2023/10/23 04:08:06;;;;;;;2.60;2.00;;;;;;;12.84;nan;-9751.66;4994971;28;20169;-71
2023/10/23 04:10:31;;;;;;;2.53;1.88;;;;;;;13.00;nan;-9752.38;4994530;28;20207;-71
2023/10/23 04:12:57;;;;;;;4.85;2.50;;;;;;;13.12;nan;-9752.88;4993417;28;20566;-72
2023/10/23 04:15:23;;;;;;;2.33;2.13;;;;;;;12.93;nan;-9752.06;4994914;28;20753;-72
2023/10/23 04:17:49;;;;;;;1.63;1.52;;;;;;;13.09;nan;-9752.78;4994103;28;20172;-68
2023/10/23 04:20:15;;;;;;;2.00;1.67;;;;;;;12.86;nan;-8787.97;4993636;28;20332;-71
2023/10/23 04:22:41;;;;;;;2.92;2.13;;;;;;;12.92;nan;-9752.00;4994297;28;20196;-70
2023/10/23 04:25:07;;;;;;;1.20;1.20;;;;;;;13.00;nan;-9431.03;4993306;28;20196;-69
2023/10/23 04:27:32;;;;;;;2.33;2.10;;;;;;;10.68;nan;-9421.75;4993724;28;20183;-70
2023/10/23 04:30:01;;;;;;;1.83;1.65;;;;;;;13.05;nan;-9752.59;4993620;28;20180;-70
2023/10/23 04:32:27;;;;;;;1.55;1.42;;;;;;;13.01;nan;-9752.41;4993699;28;20726;-71
2023/10/23 04:34:53;;;;;;;1.88;1.70;;;;;;;12.95;nan;-9430.84;4992648;28;20275;-72
2023/10/23 04:37:19;;;;;;;1.60;1.50;;;;;;;13.08;nan;-7181.09;4993871;28;20256;-70
2023/10/23 04:39:44;;;;;;;2.58;2.38;;;;;;;13.04;nan;-6859.50;4993244;28;20176;-69
2023/10/23 04:42:10;;;;;;;3.08;2.15;;;;;;;12.90;nan;-6538.00;5003004;28;20290;-68
2023/10/23 04:44:35;;;;;;;1.50;1.40;;;;;;;11.56;nan;-6859.78;4996164;28;20253;-70
2023/10/23 04:47:00;;;;;;;2.15;1.70;;;;;;;12.87;nan;-6859.53;4993956;28;20177;-72
2023/10/23 04:49:26;;;;;;;1.75;1.65;;;;;;;13.13;nan;-6537.84;4992273;28;20544;-70
2023/10/23 04:51:51;;;;;;;1.52;1.42;;;;;;;13.02;nan;-6216.28;4991899;28;20238;-70
2023/10/23 04:54:17;;;;;;;2.20;1.58;;;;;;;12.93;nan;-4929.75;4993433;28;20204;-70
2023/10/23 04:56:42;;;;;;;2.78;1.88;;;;;;;12.95;nan;-4607.94;4993265;28;20556;-72
2023/10/23 04:59:08;;;;;;;2.20;1.88;;;;;;;12.77;nan;-3965.25;4993202;28;20177;-68
2023/10/23 05:01:33;;;;;;;1.85;1.30;;;;;;;13.01;nan;-4285.91;4993420;28;20192;-71
2023/10/23 05:03:59;;;;;;;3.13;2.90;;;;;;;13.18;nan;-1708.81;4993230;28;20715;-70
2023/10/23 05:06:26;;;;;;;2.42;2.10;;;;;;;12.89;nan;-745.09;4993932;28;20247;-71
2023/10/23 05:08:52;;;;;;;2.50;2.20;;;;;;;13.05;nan;-1387.84;4993380;28;20208;-69
2023/10/23 05:11:18;;;;;;;3.08;2.00;;;;;;;12.97;nan;-1388.53;4993348;28;20181;-69
2023/10/23 05:13:45;;;;;;;2.58;2.38;;;;;;;12.83;nan;220.72;4992107;28;20192;-72
2023/10/23 05:16:12;;;;;;;1.80;1.70;;;;;;;11.93;nan;853.69;4993239;28;20188;-68
2023/10/23 05:18:38;;;;;;;2.47;2.00;;;;;;;13.09;nan;1835.72;4991798;28;20353;-67
2023/10/23 05:21:11;;;;;;;3.92;2.38;;;;;;;12.89;nan;2477.63;4993457;28;20212;-69
2023/10/23 05:23:40;;;;;;;2.28;2.08;;;;;;;13.11;nan;2158.44;4992285;28;20184;-72
2023/10/23 05:26:07;;;;;;;3.88;2.40;;;;;;;12.94;nan;2155.97;4992974;28;20203;-70
2023/10/23 05:28:33;;;;;;;2.75;2.42;;;;;;;13.17;nan;2159.44;4993132;28;20184;-69
2023/10/23 05:30:58;;;;;;;10.38;2.70;;;;;;;13.19;nan;1837.19;4992614;28;20184;-71
2023/10/23 05:33:24;;;;;;;1.80;1.70;;;;;;;13.18;nan;2804.66;4993106;28;20189;-73
2023/10/23 05:35:49;;;;;;;2.95;2.63;;;;;;;13.21;nan;3450.56;4992881;28;20603;-71
2023/10/23 05:38:15;;;;;;;2.42;2.22;;;;;;;13.46;nan;4423.38;4991717;28;20212;-70
2023/10/23 05:40:40;;;;;;;4.93;3.03;;;;;;;9.11;nan;4984.59;4992965;28;20243;-70
2023/10/23 05:43:06;;;;;;;3.50;2.70;;;;;;;13.47;nan;6038.47;4992440;28;20180;-71
2023/10/23 05:45:31;;;;;;;2.58;2.17;;;;;;;13.59;nan;7010.63;4992429;28;20204;-72
2023/10/23 05:47:56;;;;;;;3.03;2.22;;;;;;;13.69;nan;7336.38;4991504;28;20177;-71
2023/10/23 05:50:22;;;;;;;2.28;2.08;;;;;;;13.55;nan;7009.84;4991093;28;20534;-73
2023/10/23 05:52:47;;;;;;;3.22;2.80;;;;;;;13.64;nan;7011.78;4990877;28;20173;-72
2023/10/23 05:55:13;;;;;;;1.67;1.58;;;;;;;13.84;nan;6369.59;4990939;28;20165;-71
2023/10/23 05:57:39;;;;;;;2.70;2.50;;;;;;;14.00;nan;6696.53;4991192;28;20616;-72
2023/10/23 06:00:05;;;;;;;4.00;2.63;;;;;;;13.95;nan;7342.38;4991028;28;20628;-69
2023/10/23 06:02:30;;;;;;;4.55;2.67;;;;;;;14.28;nan;7673.72;4992086;28;20177;-70
2023/10/23 06:04:56;;;;;;;1.60;1.50;;;;;;;14.39;nan;8323.91;4992522;28;20232;-72
2023/10/23 06:07:21;;;;;;;2.03;1.83;;;;;;;14.34;nan;8322.50;4993419;28;20223;-72
2023/10/23 06:09:47;;;;;;;3.70;2.95;;;;;;;14.63;nan;9625.75;4993027;28;20542;-70
2023/10/23 06:12:14;;;;;;;3.42;2.50;;;;;;;14.73;nan;10276.75;4993028;28;20165;-72
2023/10/23 06:14:40;;;;;;;2.72;1.77;;;;;;;14.96;nan;11905.13;4993296;28;20180;-72
2023/10/23 06:17:06;;;;;;;1.85;1.75;;;;;;;15.14;nan;13208.81;4992650;28;20671;-71
2023/10/23 06:19:31;;;;;;;2.42;2.22;;;;;;;15.33;nan;14839.53;4993816;28;20721;-73
2023/10/23 06:21:57;;;;;;;2.80;2.45;;;;;;;15.24;nan;16461.06;4992759;28;20168;-71
2023/10/23 06:24:22;;;;;;;2.30;2.10;;;;;;;15.55;nan;17448.63;4992561;28;20208;-70
2023/10/23 06:26:47;;;;;;;2.67;2.15;;;;;;;15.73;nan;20059.81;4992836;28;20288;-72
2023/10/23 06:29:13;;;;;;;2.17;1.98;;;;;;;15.92;nan;24305.69;4992181;28;20308;-70
2023/10/23 06:31:38;;;;;;;2.28;1.70;;;;;;;15.90;nan;28547.66;4992717;28;20172;-72
2023/10/23 06:34:04;;;;;;;2.83;2.45;;;;;;;16.10;nan;31827.09;4992873;28;20184;-73
2023/10/23 06:36:32;;;;;;;3.75;2.55;;;;;;;16.36;nan;35116.69;4992606;28;20620;-71
2023/10/23 06:38:58;;;;;;;2.38;1.88;;;;;;;16.60;nan;40583.50;4992515;28;20176;-73
2023/10/23 06:41:23;;;;;;;2.97;1.85;;;;;;;16.71;nan;45616.34;4991940;28;20605;-71
2023/10/23 06:43:49;;;;;;;1.73;1.50;;;;;;;16.93;nan;49952.63;4992534;28;20280;-71
2023/10/23 06:46:14;;;;;;;3.35;1.90;;;;;;;16.91;nan;52719.13;4992770;28;20260;-73
2023/10/23 06:48:46;;;;;;;3.05;1.95;;;;;;;17.07;nan;56186.63;4993374;28;20175;-72
2023/10/23 06:51:13;;;;;;;1.33;1.23;;;;;;;17.08;nan;57113.59;4996372;28;20180;-73
2023/10/23 06:53:39;;;;;;;11.10;1.92;;;;;;;17.32;nan;57842.63;4996260;28;20180;-71
2023/10/23 06:56:07;;;;;;;1.65;1.50;;;;;;;17.38;nan;58408.94;4994911;28;20180;-70
2023/10/23 06:58:33;;;;;;;2.83;1.45;;;;;;;17.42;nan;58714.63;4995726;28;20189;-71
2023/10/23 07:01:06;;;;;;;1.48;1.38;;;;;;;17.50;nan;58955.59;4996087;28;20648;-71
2023/10/23 07:03:31;;;;;;;2.70;2.00;;;;;;;17.76;nan;59286.09;4995531;28;20605;-71
2023/10/23 07:05:57;;;;;;;1.17;1.02;;;;;;;17.75;nan;59501.94;4996961;28;20200;-70
2023/10/23 07:08:22;;;;;;;1.33;1.23;;;;;;;18.00;nan;59795.56;4996420;28;20165;-72
2023/10/23 07:10:47;;;;;;;1.65;0.95;;;;;;;18.13;nan;59933.41;4996444;28;20184;-72
2023/10/23 07:13:13;;;;;;;2.17;1.60;;;;;;;18.20;nan;60049.72;4996590;28;20176;-71
2023/10/23 07:15:40;;;;;;;1.48;1.38;;;;;;;18.49;nan;60128.41;4996400;28;20183;-71
2023/10/23 07:18:05;;;;;;;1.25;1.15;;;;;;;18.49;nan;60185.31;4995660;28;20175;-71
2023/10/23 07:20:31;;;;;;;2.00;1.65;;;;;;;18.51;nan;60238.69;4996131;28;20232;-73
2023/10/23 07:22:56;;;;;;;1.73;1.63;;;;;;;18.74;nan;60320.63;4995871;28;20204;-72
2023/10/23 07:25:22;;;;;;;2.40;1.63;;;;;;;18.90;nan;60414.06;4995548;28;20299;-70
2023/10/23 07:27:48;;;;;;;2.00;0.98;;;;;;;19.14;nan;60611.13;4996130;28;20227;-72
2023/10/23 07:30:14;;;;;;;3.97;2.40;;;;;;;19.30;nan;60621.19;4995884;28;20188;-72
2023/10/23 07:32:40;;;;;;;4.35;1.75;;;;;;;19.36;nan;60868.81;4995971;28;20176;-73
2023/10/23 07:35:08;;;;;;;1.50;1.23;;;;;;;19.29;nan;60739.22;4995868;28;20675;-70
2023/10/23 07:37:33;;;;;;;1.13;0.98;;;;;;;19.51;nan;60871.56;4996467;28;20628;-72
2023/10/23 07:40:00;;;;;;;3.20;1.80;;;;;;;19.39;nan;60998.53;4995996;28;20283;-73
2023/10/23 07:42:26;;;;;;;2.63;1.58;;;;;;;19.44;nan;60972.53;4996496;28;20219;-73
2023/10/23 07:44:51;;;;;;;2.35;1.80;;;;;;;19.16;nan;60900.19;4998397;28;20216;-71
2023/10/23 07:47:17;;;;;;;2.63;2.30;;;;;;;19.11;nan;60949.53;4999030;28;20164;-70
2023/10/23 07:49:44;;;;;;;1.73;1.45;;;;;;;19.10;nan;60811.16;4995946;28;20597;-70
2023/10/23 07:52:09;;;;;;;2.08;1.80;;;;;;;19.13;nan;60876.69;4995309;28;20189;-72
2023/10/23 07:54:35;;;;;;;3.42;1.08;;;;;;;19.34;nan;60827.69;4995449;28;20228;-61
2023/10/23 07:57:00;;;;;;;1.67;1.48;;;;;;;19.49;nan;60851.19;4995120;28;20160;-60
2023/10/23 07:59:26;;;;;;;2.13;1.92;;;;;;;19.79;nan;61089.59;4994755;28;20180;-61
2023/10/23 08:01:52;;;;;;;2.40;1.85;;;;;;;19.79;nan;61048.13;4994022;28;20181;-62
2023/10/23 08:04:18;;;;;;;2.85;1.45;;;;;;;19.78;nan;61031.44;4994746;28;20609;-63
2023/10/23 08:06:43;;;;;;;1.30;1.20;;;;;;;20.33;nan;61086.97;4995202;28;20652;-62
2023/10/23 08:09:10;;;;;;;1.73;1.13;;;;;;;20.37;nan;61153.72;4995215;28;20189;-64
2023/10/23 08:11:35;;;;;;;3.28;1.80;;;;;;;20.58;nan;61245.41;4995521;28;20172;-62
2023/10/23 08:14:01;;;;;;;5.45;1.73;;;;;;;20.84;nan;61278.78;4994998;28;20651;-63
2023/10/23 08:16:26;;;;;;;1.73;1.60;;;;;;;21.13;nan;61327.63;4994857;28;20168;-62
2023/10/23 08:18:52;;;;;;;2.03;1.55;;;;;;;21.08;nan;61402.50;4994719;28;20223;-63
2023/10/23 08:21:17;;;;;;;1.25;1.10;;;;;;;21.48;nan;61436.72;4994927;28;20165;-64
2023/10/23 08:23:46;;;;;;;1.20;1.10;;;;;;;21.69;nan;61552.94;4994922;28;20173;-61
2023/10/23 08:26:11;;;;;;;1.55;1.27;;;;;;;21.79;nan;61588.22;4994368;28;20280;-62
2023/10/23 08:28:37;;;;;;;1.77;1.67;;;;;;;22.06;nan;61628.63;4995148;28;20276;-63
2023/10/23 08:31:03;;;;;;;2.67;1.60;;;;;;;22.24;nan;61872.88;4994577;28;20179;-62
2023/10/23 08:33:28;;;;;;;1.88;1.60;;;;;;;22.13;nan;61823.94;4992223;28;20184;-63
2023/10/23 08:35:54;;;;;;;1.98;1.40;;;;;;;22.33;nan;61924.78;4993984;28;20185;-63
2023/10/23 08:38:19;;;;;;;1.23;1.05;;;;;;;22.29;nan;61956.66;4994475;28;20184;-63
2023/10/23 08:40:45;;;;;;;1.23;1.13;;;;;;;22.47;nan;61914.63;4994475;28;20209;-63
2023/10/23 08:43:10;;;;;;;2.28;1.52;;;;;;;22.82;nan;62026.81;4994611;28;20181;-64
2023/10/23 08:45:38;;;;;;;3.20;1.50;;;;;;;22.78;nan;61985.81;4993827;28;20188;-64
2023/10/23 08:48:03;;;;;;;1.10;1.00;;;;;;;22.93;nan;61997.09;5005961;28;20184;-61
2023/10/23 08:50:29;;;;;;;1.40;1.20;;;;;;;23.06;nan;62032.16;5013708;28;20175;-63
2023/10/23 08:52:59;;;;;;;1.60;1.33;;;;;;;23.18;nan;62270.03;5013327;28;20190;-61
2023/10/23 08:55:28;;;;;;;3.80;1.92;;;;;;;23.01;nan;62159.41;5013419;28;20191;-61
2023/10/23 08:57:54;;;;;;;2.58;1.80;;;;;;;23.09;nan;61559.13;5013083;28;20184;-62
2023/10/23 09:00:24;;;;;;;2.88;1.55;;;;;;;23.38;nan;62041.94;5013095;28;20215;-61
2023/10/23 09:02:50;;;;;;;1.92;1.48;;;;;;;23.46;nan;62231.03;5013135;28;20218;-62
2023/10/23 09:05:15;;;;;;;1.48;1.38;;;;;;;23.74;nan;62156.56;5012894;28;20207;-61
2023/10/23 09:07:41;;;;;;;4.22;2.03;;;;;;;23.71;nan;62027.31;5012719;28;20168;-61
2023/10/23 09:10:07;;;;;;;1.70;1.30;;;;;;;23.88;nan;62192.84;5013293;28;20172;-61
2023/10/23 09:12:34;;;;;;;1.98;1.77;;;;;;;24.09;nan;62081.00;5013057;28;20631;-62
2023/10/23 09:15:16;;;;;;;1.13;1.00;;;;;;;24.10;nan;62217.91;5012763;28;20183;-58
2023/10/23 09:17:43;;;;;;;3.83;2.10;;;;;;;24.21;nan;62201.19;5013010;28;20172;-61
2023/10/23 09:20:18;;;;;;;1.38;1.27;;;;;;;24.39;nan;62304.75;5010907;28;20224;-64
2023/10/23 09:22:47;;;;;;;2.25;1.65;;;;;;;24.20;nan;62198.00;5011203;28;20661;-62
2023/10/23 09:25:16;;;;;;;4.68;2.28;;;;;;;24.15;nan;62236.09;5010587;28;20187;-61
2023/10/23 09:27:41;;;;;;;0.82;0.82;;;;;;;23.97;nan;62171.19;5010945;28;20191;-60
2023/10/23 09:30:08;;;;;;;1.30;1.20;;;;;;;23.95;nan;62177.31;5010940;28;20634;-63
2023/10/23 09:32:37;;;;;;;1.10;1.00;;;;;;;24.09;nan;62227.22;5011698;28;20172;-60
2023/10/23 09:35:04;;;;;;;1.63;1.52;;;;;;;24.28;nan;62347.59;5012575;28;20306;-62
2023/10/23 09:37:30;;;;;;;14.18;1.75;;;;;;;24.32;nan;62323.44;5013169;28;20639;-62
2023/10/23 09:39:59;;;;;;;5.57;1.27;;;;;;;24.45;nan;62178.34;5012718;28;20179;-63
2023/10/23 09:42:34;;;;;;;1.83;1.30;;;;;;;24.26;nan;62193.25;5013246;28;20176;-64
2023/10/23 09:45:04;;;;;;;2.55;1.63;;;;;;;24.51;nan;62279.22;5012930;28;20191;-65
2023/10/23 09:47:30;;;;;;;4.38;1.63;;;;;;;24.35;nan;62441.81;4992570;28;20530;-64
2023/10/23 09:49:56;;;;;;;2.35;1.45;;;;;;;24.33;nan;62280.16;4993198;28;20223;-62
2023/10/23 09:52:26;;;;;;;2.17;1.58;;;;;;;24.58;nan;62206.22;4993320;28;20208;-63
2023/10/23 09:55:01;;;;;;;1.08;0.95;;;;;;;24.92;nan;62448.41;4993235;28;20177;-62
2023/10/23 09:57:39;;;;;;;2.90;1.60;;;;;;;25.03;nan;62440.03;4993022;28;20168;-62
2023/10/23 10:00:16;;;;;;;4.13;2.20;;;;;;;24.94;nan;62437.59;4992782;28;20173;-61
2023/10/23 10:02:53;;;;;;;3.50;2.45;;;;;;;25.29;nan;62401.78;4993201;28;20541;-60
2023/10/23 10:05:28;;;;;;;1.98;1.73;;;;;;;25.22;nan;62476.91;4993409;28;20291;-60
2023/10/23 10:08:03;;;;;;;3.80;2.40;;;;;;;25.43;nan;62381.13;4992903;28;20191;-60
2023/10/23 10:10:30;;;;;;;1.27;1.13;;;;;;;25.48;nan;62339.72;4992791;28;20195;-60
2023/10/23 10:12:56;;;;;;;1.27;1.10;;;;;;;25.56;nan;62392.25;4992644;28;20183;-62
2023/10/23 10:15:25;;;;;;;2.67;1.80;;;;;;;25.60;nan;62501.50;4991860;28;20185;-61
2023/10/23 10:17:51;;;;;;;2.95;1.83;;;;;;;25.55;nan;62333.50;4992826;28;20264;-59
2023/10/23 10:20:19;;;;;;;3.40;1.95;;;;;;;25.27;nan;62491.03;4992751;28;20679;-62
2023/10/23 10:22:48;;;;;;;1.55;1.10;;;;;;;25.27;nan;62501.50;4992003;28;20192;-60
2023/10/23 10:25:15;;;;;;;1.42;1.00;;;;;;;25.74;nan;62442.19;4991464;28;20200;-61
2023/10/23 10:27:41;;;;;;;0.90;0.90;;;;;;;25.88;nan;62457.59;4991809;28;20197;-62
2023/10/23 10:30:46;;;;;;;3.92;2.22;;;;;;;26.05;nan;62536.72;4992468;28;20652;-61
2023/10/23 10:33:24;;;;;;;5.20;1.52;;;;;;;26.02;nan;62468.38;4991020;28;20199;-63
2023/10/23 10:35:51;;;;;;;2.00;1.25;;;;;;;26.08;nan;62469.44;4992299;28;20674;-61
2023/10/23 10:38:23;;;;;;;3.83;1.92;;;;;;;25.91;nan;62432.78;4991148;28;20180;-62
2023/10/23 10:40:57;;;;;;;1.60;1.50;;;;;;;25.98;nan;62377.38;4991799;28;20266;-61
2023/10/23 10:43:24;;;;;;;3.42;1.70;;;;;;;26.23;nan;62491.81;4991765;28;20276;-64
2023/10/23 10:45:49;;;;;;;1.00;0.90;;;;;;;26.24;nan;62469.97;4991096;28;20606;-62
2023/10/23 10:48:15;;;;;;;1.52;1.13;;;;;;;26.45;nan;62590.38;4992092;28;20256;-60
2023/10/23 10:50:41;;;;;;;1.55;1.45;;;;;;;26.62;nan;62580.44;4991575;28;20185;-62
2023/10/23 10:53:08;;;;;;;3.03;2.38;;;;;;;26.66;nan;62590.25;4991908;28;20161;-62
2023/10/23 10:55:35;;;;;;;7.25;2.08;;;;;;;26.54;nan;62446.03;4991983;28;20181;-62
2023/10/23 10:58:02;;;;;;;2.30;1.80;;;;;;;26.89;nan;62694.75;4991907;28;20211;-62
2023/10/23 11:00:33;;;;;;;2.55;2.05;;;;;;;26.58;nan;62554.91;4992162;28;20184;-62
2023/10/23 11:02:58;;;;;;;2.75;1.95;;;;;;;26.45;nan;62471.88;4992054;28;20706;-61
2023/10/23 11:05:24;;;;;;;1.27;1.00;;;;;;;26.28;nan;62547.34;4991965;28;20204;-62
2023/10/23 11:07:51;;;;;;;3.85;2.13;;;;;;;26.56;nan;62526.38;4991805;28;20160;-62
2023/10/23 11:10:16;;;;;;;2.25;1.60;;;;;;;26.59;nan;62545.56;4990707;28;20687;-62
2023/10/23 11:12:42;;;;;;;3.08;1.25;;;;;;;26.78;nan;62614.50;4991601;28;20184;-61
2023/10/23 11:15:08;;;;;;;1.17;1.00;;;;;;;26.73;nan;62430.44;4991643;28;20176;-62
2023/10/23 11:17:33;;;;;;;1.55;1.40;;;;;;;26.83;nan;62573.00;4991627;28;20172;-61
2023/10/23 11:19:59;;;;;;;1.63;1.13;;;;;;;26.96;nan;62713.84;4991725;28;20238;-61
2023/10/23 11:22:25;;;;;;;5.40;2.38;;;;;;;27.10;nan;62561.38;4991693;28;20255;-61
2023/10/23 11:24:51;;;;;;;1.73;1.15;;;;;;;26.91;nan;62540.22;4991516;28;20207;-61
2023/10/23 11:27:16;;;;;;;1.83;1.38;;;;;;;26.86;nan;62775.84;4991728;28;20173;-61
2023/10/23 11:29:48;;;;;;;4.80;1.75;;;;;;;;;;4991715;28;20259;-61
2023/10/23 11:32:15;;;;;;;1.85;1.40;;;;;;;26.62;nan;62517.53;4991264;28;20655;-61
2023/10/23 11:34:41;;;;;;;3.42;1.20;;;;;;;26.71;nan;62572.41;4990130;28;20180;-60
2023/10/23 11:37:08;;;;;;;2.22;1.13;;;;;;;26.69;nan;62641.47;4992816;28;20163;-63
2023/10/23 11:39:42;;;;;;;3.08;1.63;;;;;;;26.80;nan;62677.69;4993526;28;20199;-62
2023/10/23 11:42:07;;;;;;;2.13;1.13;;;;;;;26.77;nan;62742.44;4993486;28;20548;-61
2023/10/23 11:44:34;;;;;;;1.58;1.30;;;;;;;26.65;nan;62542.50;4992846;28;20203;-60
2023/10/23 11:47:02;;;;;;;3.08;1.77;;;;;;;26.65;nan;62610.09;4993017;28;20179;-63
2023/10/23 11:49:27;;;;;;;1.67;1.27;;;;;;;26.49;nan;62555.09;4993782;28;20179;-62
2023/10/23 11:51:56;;;;;;;0.90;0.88;;;;;;;26.54;nan;62558.19;4995254;28;20259;-62